Time;durP1;ratioP1;P1;durP2;ratioP2;P2;SDS_P1;SDS_P2;PMS_P1;PMS_P2;Temp;Humidity;BMP_temperature;BMP_pressure;BME280_temperature;BME280_humidity;BME280_pressure;Samples;Min_cycle;Max_cycle;Signal;HPM_P1;HPM_P2
2022/04/23 03:01:24;;;;;;;40.90;38.30;;;8.20;99.90;;;;;;5449816;23;20296;-76
2022/04/23 03:03:54;;;;;;;42.67;40.03;;;8.20;99.90;;;;;;4952150;29;20712;-76
2022/04/23 03:06:21;;;;;;;31.87;29.70;;;8.10;99.90;;;;;;4936290;29;20190;-77
2022/04/23 03:08:48;;;;;;;28.90;26.77;;;8.10;99.90;;;;;;4936616;29;20205;-76
2022/04/23 03:11:14;;;;;;;29.30;27.20;;;8.00;99.90;;;;;;4928013;29;20258;-77
2022/04/23 03:13:40;;;;;;;20.00;18.33;;;8.00;99.90;;;;;;4924448;29;20259;-76
2022/04/23 03:16:07;;;;;;;26.17;24.37;;;7.90;99.90;;;;;;4921596;29;20233;-80
2022/04/23 03:18:32;;;;;;;47.40;44.53;;;7.80;99.90;;;;;;4920092;29;20564;-80
2022/04/23 03:20:58;;;;;;;40.93;38.33;;;7.60;99.90;;;;;;4918861;29;20223;-80
2022/04/23 03:23:24;;;;;;;32.57;30.27;;;7.50;99.90;;;;;;4918554;29;20179;-78
2022/04/23 03:25:50;;;;;;;31.20;29.10;;;7.40;99.90;;;;;;4918356;29;20198;-80
2022/04/23 03:28:17;;;;;;;42.33;39.60;;;7.30;99.90;;;;;;4919522;29;20179;-79
2022/04/23 03:30:44;;;;;;;45.77;42.83;;;7.30;99.90;;;;;;4918811;29;20206;-79
2022/04/23 03:33:10;;;;;;;41.73;39.10;;;7.30;99.90;;;;;;4917720;29;20950;-79
2022/04/23 03:35:35;;;;;;;32.77;30.57;;;7.20;99.90;;;;;;4918084;29;20226;-81
2022/04/23 03:38:03;;;;;;;23.70;21.60;;;7.20;99.90;;;;;;4918321;29;20215;-81
2022/04/23 03:40:29;;;;;;;26.47;24.57;;;7.20;99.90;;;;;;4922169;29;20219;-82
2022/04/23 03:42:55;;;;;;;37.13;34.53;;;7.30;99.90;;;;;;4918626;29;20548;-80
2022/04/23 03:45:23;;;;;;;20.20;18.30;;;7.40;99.90;;;;;;4918797;29;20187;-80
2022/04/23 03:47:49;;;;;;;31.97;29.50;;;7.50;99.90;;;;;;4917956;29;20183;-81
2022/04/23 03:50:16;;;;;;;41.37;38.33;;;7.60;99.90;;;;;;4918270;29;20642;-79
2022/04/23 03:52:43;;;;;;;38.73;35.93;;;7.60;99.90;;;;;;4921827;29;20190;-79
2022/04/23 03:55:11;;;;;;;35.43;32.83;;;7.60;99.90;;;;;;4926287;29;20218;-78
2022/04/23 03:57:45;;;;;;;19.77;17.90;;;7.70;99.90;;;;;;4932854;29;20178;-82
2022/04/23 04:00:13;;;;;;;21.30;19.40;;;7.70;99.90;;;;;;4937374;29;20214;-81
2022/04/23 04:02:39;;;;;;;21.43;19.53;;;7.70;99.90;;;;;;4938982;29;20190;-81
2022/04/23 04:05:05;;;;;;;18.30;16.60;;;7.70;99.90;;;;;;4937212;29;20189;-82
2022/04/23 04:07:31;;;;;;;36.20;33.53;;;7.70;99.90;;;;;;4937216;29;20178;-81
2022/04/23 04:10:00;;;;;;;40.57;37.67;;;7.80;99.90;;;;;;4947491;29;20175;-80
2022/04/23 04:12:26;;;;;;;155.10;144.87;;;7.70;99.90;;;;;;4951543;29;20575;-79
2022/04/23 04:14:52;;;;;;;59.43;55.67;;;7.80;99.90;;;;;;4945610;29;20190;-80
2022/04/23 04:17:18;;;;;;;34.53;32.07;;;7.90;99.90;;;;;;4938638;29;20245;-81
2022/04/23 04:19:45;;;;;;;25.67;23.37;;;7.90;99.90;;;;;;4937018;29;20214;-81
2022/04/23 04:22:11;;;;;;;39.17;36.03;;;8.00;99.90;;;;;;4935830;29;20213;-80
2022/04/23 04:24:37;;;;;;;56.13;52.53;;;8.20;99.90;;;;;;4938412;29;20582;-80
2022/04/23 04:27:04;;;;;;;105.43;99.57;;;8.20;99.90;;;;;;4939359;29;20273;-79
2022/04/23 04:29:31;;;;;;;96.73;91.23;;;8.30;99.90;;;;;;4951673;29;20194;-79
2022/04/23 04:31:57;;;;;;;18.93;17.23;;;8.30;99.90;;;;;;4941673;29;20554;-79
2022/04/23 04:34:31;;;;;;;18.07;16.30;;;8.40;99.90;;;;;;4937002;29;20247;-79
2022/04/23 04:37:08;;;;;;;15.47;13.87;;;8.60;99.90;;;;;;4927557;29;20282;-80
2022/04/23 04:39:35;;;;;;;16.13;14.60;;;8.70;99.90;;;;;;4918323;29;20274;-80
2022/04/23 04:42:02;;;;;;;20.90;19.10;;;8.80;99.90;;;;;;4934811;29;20679;-80
2022/04/23 04:44:28;;;;;;;26.63;24.33;;;8.90;99.90;;;;;;4936788;29;20190;-81
2022/04/23 04:46:54;;;;;;;21.23;19.53;;;8.90;99.90;;;;;;4937043;29;20185;-82
2022/04/23 04:49:22;;;;;;;36.57;33.67;;;8.90;99.90;;;;;;4936434;29;20208;-80
2022/04/23 04:51:49;;;;;;;37.40;34.90;;;9.00;99.90;;;;;;4936174;29;20234;-81
2022/04/23 04:54:17;;;;;;;39.53;36.87;;;9.00;99.90;;;;;;4942261;29;20187;-80
2022/04/23 04:56:44;;;;;;;47.30;44.20;;;9.10;99.90;;;;;;4950936;29;20183;-81
2022/04/23 04:59:11;;;;;;;67.80;63.77;;;9.20;99.90;;;;;;4946693;29;20217;-80
2022/04/23 05:01:37;;;;;;;76.83;72.63;;;9.30;99.90;;;;;;4937341;29;20213;-81
2022/04/23 05:04:04;;;;;;;46.40;43.50;;;9.30;99.90;;;;;;4935054;29;20182;-80
2022/04/23 05:06:29;;;;;;;16.17;14.77;;;9.40;99.90;;;;;;4936098;29;20199;-80
2022/04/23 05:08:55;;;;;;;14.83;13.53;;;9.50;99.90;;;;;;4940178;29;20182;-80
2022/04/23 05:11:21;;;;;;;24.50;22.60;;;9.60;99.90;;;;;;4935424;29;20203;-81
2022/04/23 05:13:47;;;;;;;18.93;17.37;;;9.70;99.90;;;;;;4936984;29;20269;-81
2022/04/23 05:16:13;;;;;;;14.90;13.60;;;9.70;99.90;;;;;;4936516;29;20174;-80
2022/04/23 05:18:39;;;;;;;14.60;13.37;;;9.90;99.90;;;;;;4944613;29;20229;-79
2022/04/23 05:21:05;;;;;;;16.13;14.73;;;10.00;99.90;;;;;;4942029;29;20573;-81
2022/04/23 05:23:31;;;;;;;12.97;11.77;;;10.00;99.90;;;;;;4938231;29;20565;-83
2022/04/23 05:25:57;;;;;;;11.73;10.73;;;10.20;99.90;;;;;;4928578;29;20179;-82
2022/04/23 05:28:23;;;;;;;13.33;12.13;;;10.30;99.90;;;;;;4918612;29;20183;-80
2022/04/23 05:30:49;;;;;;;14.40;13.17;;;10.20;99.90;;;;;;4928352;29;20205;-80
2022/04/23 05:33:16;;;;;;;13.43;12.30;;;10.20;99.90;;;;;;4938275;29;20183;-80
2022/04/23 05:35:42;;;;;;;13.47;12.17;;;10.20;99.90;;;;;;4940136;29;20185;-78
2022/04/23 05:38:08;;;;;;;13.63;12.53;;;10.20;99.90;;;;;;4952124;29;20186;-79
2022/04/23 05:40:33;;;;;;;14.77;13.57;;;10.10;99.90;;;;;;4948666;29;20210;-80
2022/04/23 05:42:59;;;;;;;15.03;13.53;;;10.10;99.90;;;;;;4940590;29;20186;-81
2022/04/23 05:45:26;;;;;;;17.43;16.00;;;10.20;99.90;;;;;;4950537;29;20174;-81
2022/04/23 05:47:53;;;;;;;15.33;14.00;;;10.20;99.90;;;;;;4949492;29;20226;-81
2022/04/23 05:50:18;;;;;;;17.50;16.20;;;10.20;99.90;;;;;;4937503;29;20193;-80
2022/04/23 05:52:44;;;;;;;24.47;22.70;;;10.30;99.90;;;;;;4936248;29;20229;-79
2022/04/23 05:55:10;;;;;;;24.20;22.60;;;10.40;99.90;;;;;;4935955;29;20193;-81
2022/04/23 05:57:37;;;;;;;17.93;16.63;;;10.50;99.90;;;;;;4935873;29;20186;-81
2022/04/23 06:00:04;;;;;;;12.90;11.63;;;10.70;99.90;;;;;;4936279;29;20229;-80
2022/04/23 06:02:31;;;;;;;12.67;11.67;;;10.90;99.90;;;;;;4916746;29;20230;-78
2022/04/23 06:05:00;;;;;;;12.53;11.50;;;10.90;99.90;;;;;;4912771;29;20647;-78
2022/04/23 06:07:26;;;;;;;13.67;12.47;;;10.90;99.90;;;;;;4913006;29;20287;-78
2022/04/23 06:09:52;;;;;;;12.93;11.83;;;10.80;99.90;;;;;;4913368;29;20286;-79
2022/04/23 06:12:18;;;;;;;13.13;12.00;;;10.90;99.90;;;;;;4932134;29;20221;-78
2022/04/23 06:14:46;;;;;;;13.10;11.80;;;10.90;99.90;;;;;;4932514;29;20619;-78
2022/04/23 06:17:13;;;;;;;11.50;10.60;;;10.90;99.90;;;;;;4932764;29;20190;-78
2022/04/23 06:19:39;;;;;;;15.17;14.03;;;11.00;99.90;;;;;;4932184;29;20218;-78
2022/04/23 06:22:05;;;;;;;16.53;15.33;;;11.00;99.90;;;;;;4932835;29;20206;-78
2022/04/23 06:24:35;;;;;;;17.50;16.30;;;11.00;99.90;;;;;;4935663;29;20214;-78
2022/04/23 06:27:01;;;;;;;18.73;17.30;;;11.00;99.90;;;;;;4936215;29;20286;-79
2022/04/23 06:29:27;;;;;;;17.90;16.60;;;11.10;99.90;;;;;;4942270;29;20193;-80
2022/04/23 06:31:53;;;;;;;16.93;15.63;;;11.20;99.90;;;;;;4940070;29;20195;-78
2022/04/23 06:34:20;;;;;;;17.77;16.57;;;11.30;99.90;;;;;;4935441;29;20184;-76
2022/04/23 06:36:46;;;;;;;17.93;16.43;;;11.40;99.90;;;;;;4936658;29;20187;-75
2022/04/23 06:39:12;;;;;;;14.83;13.83;;;11.50;99.90;;;;;;4934637;29;20622;-73
2022/04/23 06:41:38;;;;;;;14.33;13.33;;;11.60;99.90;;;;;;4935361;29;20519;-77
2022/04/23 06:44:04;;;;;;;13.97;13.07;;;11.60;99.90;;;;;;4936696;29;20178;-77
2022/04/23 06:46:29;;;;;;;14.43;13.53;;;11.50;99.90;;;;;;4918186;29;20761;-77
2022/04/23 06:48:55;;;;;;;13.63;12.80;;;11.50;99.90;;;;;;4931066;29;20257;-77
2022/04/23 06:51:21;;;;;;;8.53;7.93;;;11.60;99.90;;;;;;4936386;29;20202;-77
2022/04/23 06:53:47;;;;;;;9.37;8.57;;;11.70;99.90;;;;;;4936301;29;20187;-77
2022/04/23 06:56:13;;;;;;;9.30;8.60;;;11.60;99.90;;;;;;4935511;29;20624;-77
2022/04/23 06:58:39;;;;;;;11.73;10.83;;;11.70;99.90;;;;;;4934304;29;20670;-77
2022/04/23 07:01:05;;;;;;;16.13;14.93;;;12.00;99.90;;;;;;4935270;29;20309;-77
2022/04/23 07:03:31;;;;;;;6.50;6.00;;;12.20;99.90;;;;;;4936287;29;20278;-77
2022/04/23 07:05:57;;;;;;;9.43;8.67;;;12.10;99.90;;;;;;4936376;29;20197;-78
2022/04/23 07:08:24;;;;;;;9.73;9.03;;;11.90;99.90;;;;;;4934585;29;20570;-76
2022/04/23 07:10:51;;;;;;;9.97;9.07;;;12.00;99.90;;;;;;4936182;29;20214;-78
2022/04/23 07:13:16;;;;;;;10.90;10.00;;;12.20;99.90;;;;;;4936277;29;20218;-77
2022/04/23 07:15:44;;;;;;;19.80;18.60;;;12.40;99.90;;;;;;4935061;29;20218;-77
2022/04/23 07:18:10;;;;;;;20.60;19.30;;;12.30;99.90;;;;;;4934820;29;20569;-77
2022/04/23 07:20:39;;;;;;;16.37;15.30;;;12.40;99.90;;;;;;4935600;29;20222;-77
2022/04/23 07:25:50;;;;;;;8.57;7.97;;;12.60;99.90;;;;;;4936128;29;20186;-77
2022/04/23 07:28:16;;;;;;;8.07;7.47;;;12.80;99.90;;;;;;4935050;29;20222;-77
2022/04/23 07:30:43;;;;;;;7.73;7.13;;;12.60;99.90;;;;;;4935869;29;20506;-77
2022/04/23 07:37:27;;;;;;;9.20;8.40;;;12.60;99.90;;;;;;4933929;29;20178;-77
2022/04/23 07:38:39;;;;;;;8.77;8.07;;;12.50;99.90;;;;;;4935002;29;20254;-77
2022/04/23 07:41:05;;;;;;;13.50;12.50;;;12.80;99.90;;;;;;4935021;29;20214;-78
2022/04/23 07:43:31;;;;;;;17.83;16.73;;;13.10;99.90;;;;;;4935003;29;20187;-77
2022/04/23 07:45:57;;;;;;;21.10;19.67;;;13.10;99.90;;;;;;4937738;29;20533;-77
2022/04/23 07:48:23;;;;;;;20.43;18.93;;;13.20;99.90;;;;;;4934357;29;20185;-76
2022/04/23 07:50:48;;;;;;;10.57;9.67;;;13.40;99.90;;;;;;4934415;29;20226;-76
2022/04/23 07:53:14;;;;;;;10.73;9.93;;;13.40;99.90;;;;;;4920039;29;20284;-77
2022/04/23 07:55:40;;;;;;;10.80;8.93;;;13.50;99.90;;;;;;4934340;29;20196;-77
2022/04/23 07:58:09;;;;;;;6.43;5.93;;;13.60;99.90;;;;;;4934038;29;20270;-76
2022/04/23 08:00:36;;;;;;;10.03;9.23;;;13.40;99.90;;;;;;4933767;29;20905;-76
2022/04/23 08:03:03;;;;;;;9.83;9.00;;;13.30;99.90;;;;;;4934410;29;20269;-76
2022/04/23 08:05:30;;;;;;;10.17;9.27;;;13.40;99.90;;;;;;4935224;29;20178;-77
2022/04/23 08:07:56;;;;;;;9.43;8.47;;;13.30;99.90;;;;;;4934348;29;20767;-78
2022/04/23 08:10:22;;;;;;;8.23;7.50;;;13.40;99.90;;;;;;4935035;29;20191;-78
2022/04/23 08:12:48;;;;;;;8.63;7.93;;;13.50;99.90;;;;;;4934346;29;20192;-75
2022/04/23 08:15:14;;;;;;;10.03;9.23;;;13.50;99.90;;;;;;4934330;29;20187;-75
2022/04/23 08:17:40;;;;;;;10.03;9.10;;;13.60;99.90;;;;;;4934365;29;20245;-75
2022/04/23 08:20:07;;;;;;;11.50;10.60;;;13.50;99.90;;;;;;4936928;29;20217;-74
2022/04/23 08:22:32;;;;;;;9.97;9.00;;;13.60;99.90;;;;;;4935297;29;20210;-75
2022/04/23 08:24:58;;;;;;;10.07;9.30;;;13.60;99.90;;;;;;4937897;29;20178;-77
2022/04/23 08:27:24;;;;;;;9.53;8.73;;;13.50;99.90;;;;;;4937989;29;20190;-78
2022/04/23 08:32:35;;;;;;;10.00;9.10;;;13.50;99.90;;;;;;4938981;29;20226;-77
2022/04/23 08:35:01;;;;;;;9.40;8.60;;;13.50;99.90;;;;;;4937104;29;20258;-77
2022/04/23 08:37:27;;;;;;;8.67;7.97;;;13.40;99.90;;;;;;4923305;29;20182;-77
2022/04/23 08:39:53;;;;;;;7.07;6.57;;;13.20;99.90;;;;;;4926699;29;20210;-77
2022/04/23 08:42:19;;;;;;;7.57;6.97;;;13.20;99.90;;;;;;4936238;29;20249;-77
2022/04/23 08:47:26;;;;;;;7.77;7.07;;;13.00;99.90;;;;;;4941325;29;20353;-78
2022/04/23 08:49:55;;;;;;;9.83;9.17;;;13.00;99.90;;;;;;4944119;29;20187;-78
2022/04/23 08:52:32;;;;;;;11.37;10.57;;;12.90;99.90;;;;;;5409888;23;20878;-79
2022/04/23 08:55:06;;;;;;;8.43;7.83;;;13.10;99.90;;;;;;4948612;28;20235;-78
2022/04/23 08:57:32;;;;;;;7.23;6.73;;;13.30;99.90;;;;;;4936335;29;20259;-77
2022/04/23 08:59:59;;;;;;;7.87;7.27;;;13.50;99.90;;;;;;4925823;29;20267;-78
2022/04/23 09:02:27;;;;;;;6.10;5.70;;;13.30;99.90;;;;;;4921541;29;20203;-78
2022/04/23 09:04:56;;;;;;;8.87;7.90;;;13.20;99.90;;;;;;4936459;29;20185;-78
2022/04/23 09:07:24;;;;;;;8.63;8.00;;;13.20;99.90;;;;;;4939557;29;20653;-78
2022/04/23 09:09:52;;;;;;;7.43;6.83;;;13.30;99.90;;;;;;4943377;29;20194;-78
2022/04/23 09:12:19;;;;;;;8.07;7.27;;;13.40;99.90;;;;;;4945891;29;20210;-77
2022/04/23 09:14:45;;;;;;;7.37;6.77;;;13.40;99.90;;;;;;4942259;29;20237;-78
2022/04/23 09:25:40;;;;;;;8.47;7.73;;;13.40;99.90;;;;;;4944313;29;20190;-76
2022/04/23 09:28:16;;;;;;;10.90;9.97;;;13.60;99.90;;;;;;4939096;29;20239;-75
2022/04/23 09:30:42;;;;;;;9.20;8.50;;;13.60;99.90;;;;;;4918228;29;20211;-77
2022/04/23 09:33:08;;;;;;;9.17;8.47;;;13.60;99.90;;;;;;4916175;29;20187;-77
2022/04/23 09:35:34;;;;;;;10.50;9.70;;;13.60;99.90;;;;;;4915803;29;20246;-76
2022/04/23 09:38:18;;;;;;;9.60;8.93;;;13.60;99.90;;;;;;4914316;29;20201;-77
2022/04/23 09:40:56;;;;;;;10.00;9.30;;;13.50;99.90;;;;;;4927768;29;20709;-77
2022/04/23 09:43:32;;;;;;;10.50;9.80;;;13.50;99.90;;;;;;4937095;29;20277;-77
2022/04/23 09:46:03;;;;;;;15.53;14.43;;;13.60;99.90;;;;;;4934578;29;20213;-78
2022/04/23 09:48:30;;;;;;;20.60;19.30;;;14.00;99.90;;;;;;4934311;29;20643;-77
2022/04/23 09:50:57;;;;;;;20.33;18.53;;;14.00;99.90;;;;;;4931960;29;20206;-76
2022/04/23 09:53:30;;;;;;;18.30;17.00;;;13.80;99.90;;;;;;4924329;29;20266;-77
2022/04/23 09:55:59;;;;;;;20.53;19.13;;;13.70;99.90;;;;;;4909657;29;20247;-76
2022/04/23 09:58:28;;;;;;;18.70;17.53;;;13.80;99.90;;;;;;4917306;29;20194;-77
2022/04/23 10:00:56;;;;;;;21.97;20.57;;;13.90;99.90;;;;;;4920502;29;20247;-78
2022/04/23 10:03:30;;;;;;;19.50;18.40;;;14.00;99.90;;;;;;4924090;29;20190;-78
2022/04/23 10:05:57;;;;;;;18.63;17.37;;;13.90;99.90;;;;;;4925740;29;20188;-77
2022/04/23 10:08:26;;;;;;;18.23;17.03;;;13.80;99.90;;;;;;4941679;29;20674;-77
2022/04/23 10:11:10;;;;;;;16.07;14.97;;;13.80;99.90;;;;;;4940132;29;20214;-76
2022/04/23 10:13:41;;;;;;;17.73;16.53;;;13.80;99.90;;;;;;4950415;29;20533;-71
2022/04/23 10:16:08;;;;;;;27.93;26.40;;;14.00;99.90;;;;;;4935796;29;20179;-71
2022/04/23 10:18:40;;;;;;;17.30;16.20;;;14.30;99.90;;;;;;4916754;29;20561;-72
2022/04/23 10:21:09;;;;;;;16.43;15.43;;;14.30;99.90;;;;;;4916580;29;20222;-72
2022/04/23 10:23:58;;;;;;;12.33;11.30;;;14.50;99.90;;;;;;4917455;29;20206;-72
2022/04/23 10:26:50;;;;;;;11.13;10.33;;;14.80;99.90;;;;;;4927043;29;20205;-72
2022/04/23 10:29:23;;;;;;;10.47;9.60;;;14.80;99.90;;;;;;4929944;29;20260;-72
2022/04/23 10:32:14;;;;;;;10.40;9.53;;;15.00;99.90;;;;;;4917768;29;20325;-73
2022/04/23 10:34:41;;;;;;;10.57;9.67;;;15.00;99.90;;;;;;4917504;29;20679;-73
2022/04/23 10:37:24;;;;;;;11.57;10.40;;;15.00;99.90;;;;;;4927274;29;20193;-73
2022/04/23 10:39:53;;;;;;;11.60;10.70;;;15.00;99.90;;;;;;4932453;29;20218;-74
2022/04/23 10:42:21;;;;;;;12.87;11.83;;;15.20;99.90;;;;;;4931933;29;20269;-75
2022/04/23 10:44:48;;;;;;;13.47;12.47;;;15.20;99.90;;;;;;4951449;29;20994;-75
2022/04/23 10:47:30;;;;;;;16.93;15.80;;;15.10;99.90;;;;;;4936176;29;20179;-75
2022/04/23 10:50:25;;;;;;;31.37;29.53;;;15.50;99.90;;;;;;4935806;29;20273;-76
2022/04/23 10:52:54;;;;;;;31.40;29.30;;;15.70;99.90;;;;;;4936862;29;20202;-75
2022/04/23 10:55:21;;;;;;;30.07;28.30;;;15.60;99.90;;;;;;4935690;29;20185;-74
2022/04/23 10:57:51;;;;;;;32.47;30.60;;;15.50;99.90;;;;;;4935856;29;20284;-75
2022/04/23 11:00:20;;;;;;;24.27;22.97;;;15.50;99.90;;;;;;4950574;29;20202;-74
2022/04/23 11:02:56;;;;;;;32.43;30.53;;;15.30;99.90;;;;;;4937155;29;20273;-74
2022/04/23 11:14:36;;;;;;;29.77;28.03;;;15.50;99.90;;;;;;4936135;29;20182;-73
2022/04/23 11:17:02;;;;;;;31.00;29.07;;;15.50;99.90;;;;;;4935796;29;20190;-73
2022/04/23 11:19:30;;;;;;;32.67;30.50;;;15.70;99.90;;;;;;4936067;29;20189;-73
2022/04/23 11:21:56;;;;;;;31.97;29.87;;;15.60;99.90;;;;;;4935887;29;20202;-73
2022/04/23 11:24:24;;;;;;;16.40;15.30;;;15.60;99.90;;;;;;4936326;29;20220;-73
2022/04/23 11:26:51;;;;;;;19.33;17.97;;;15.60;99.90;;;;;;4939072;29;20190;-73
2022/04/23 11:29:17;;;;;;;28.83;27.20;;;15.40;99.90;;;;;;4917587;29;20597;-73
2022/04/23 11:31:53;;;;;;;32.53;30.57;;;15.20;99.90;;;;;;4931649;29;20293;-72
2022/04/23 11:34:19;;;;;;;30.50;28.70;;;15.20;99.90;;;;;;4915924;29;20218;-73
2022/04/23 11:36:45;;;;;;;30.73;28.90;;;15.20;99.90;;;;;;4927089;29;20269;-72
2022/04/23 11:39:13;;;;;;;32.17;30.37;;;15.30;99.90;;;;;;4937119;29;20214;-73
2022/04/23 11:41:43;;;;;;;23.70;22.33;;;15.60;99.90;;;;;;4953196;29;20305;-73
2022/04/23 11:47:29;;;;;;;22.17;20.80;;;15.50;99.90;;;;;;4901889;29;20180;-74
2022/04/23 11:50:06;;;;;;;20.83;19.53;;;15.50;99.90;;;;;;4897453;29;20184;-74
2022/04/23 11:52:33;;;;;;;22.40;21.03;;;15.30;99.90;;;;;;4907504;29;20309;-73
2022/04/23 11:55:01;;;;;;;13.67;12.57;;;15.70;99.90;;;;;;4916832;29;20273;-74
2022/04/23 11:57:27;;;;;;;10.67;9.87;;;15.80;99.90;;;;;;4930568;29;20198;-73
2022/04/23 12:00:03;;;;;;;7.77;7.17;;;15.90;99.90;;;;;;4935581;29;20228;-74
2022/04/23 12:02:32;;;;;;;7.70;7.00;;;16.10;99.90;;;;;;4934486;29;20202;-74
2022/04/23 12:05:02;;;;;;;9.33;8.50;;;16.30;99.90;;;;;;4935544;29;20185;-74
2022/04/23 12:07:31;;;;;;;9.70;8.90;;;16.40;99.90;;;;;;4934835;29;20186;-74
2022/04/23 12:09:59;;;;;;;12.40;11.50;;;16.60;99.90;;;;;;4934395;29;20248;-73
2022/04/23 12:12:28;;;;;;;12.47;11.57;;;16.60;99.90;;;;;;4935829;29;20648;-74
2022/04/23 12:14:54;;;;;;;11.60;10.80;;;16.80;99.90;;;;;;4952013;29;20245;-74
2022/04/23 12:17:20;;;;;;;13.07;12.10;;;16.70;99.90;;;;;;4935374;29;20679;-74
2022/04/23 12:19:48;;;;;;;9.50;8.60;;;16.80;99.90;;;;;;4916215;29;20219;-74
2022/04/23 12:22:28;;;;;;;8.17;7.47;;;17.00;99.90;;;;;;4930493;29;20289;-74
2022/04/23 12:25:18;;;;;;;8.37;7.57;;;17.10;99.90;;;;;;4915427;29;20261;-74
2022/04/23 12:28:03;;;;;;;9.80;7.90;;;16.90;99.90;;;;;;4931714;29;20651;-74
2022/04/23 12:41:58;;;;;;;9.23;8.43;;;16.90;99.90;;;;;;4934638;29;20246;-73
2022/04/23 12:44:30;;;;;;;8.67;7.93;;;17.20;99.90;;;;;;4933670;29;20261;-73
2022/04/23 12:47:01;;;;;;;9.50;8.60;;;16.90;99.90;;;;;;4929838;29;20540;-73
2022/04/23 12:49:48;;;;;;;9.97;9.07;;;16.70;99.90;;;;;;4915690;29;20187;-74
2022/04/23 12:52:15;;;;;;;12.03;11.07;;;16.70;99.90;;;;;;4914507;29;20811;-73
2022/04/23 12:54:40;;;;;;;13.13;12.10;;;16.20;99.90;;;;;;4915551;29;20311;-73
2022/04/23 12:57:15;;;;;;;11.33;10.37;;;16.00;99.90;;;;;;4926676;29;20565;-73
2022/04/23 12:59:41;;;;;;;12.93;11.93;;;16.30;99.90;;;;;;4932960;29;20189;-73
2022/04/23 13:02:07;;;;;;;14.57;11.73;;;16.50;99.90;;;;;;4934220;29;20202;-73
2022/04/23 13:04:33;;;;;;;9.00;8.20;;;16.90;99.90;;;;;;4933068;29;20214;-74
2022/04/23 13:09:43;;;;;;;10.20;9.27;;;17.10;99.90;;;;;;4934159;29;20186;-73
2022/04/23 13:12:09;;;;;;;10.00;9.20;;;17.00;99.90;;;;;;4933046;29;20209;-73
2022/04/23 13:14:35;;;;;;;10.10;8.97;;;16.90;99.90;;;;;;4933177;29;20194;-73
2022/04/23 13:17:01;;;;;;;9.40;8.57;;;17.00;99.90;;;;;;4933762;29;20216;-73
2022/04/23 13:19:26;;;;;;;10.43;9.53;;;16.80;99.90;;;;;;4933015;29;20196;-73
2022/04/23 13:21:52;;;;;;;11.67;10.07;;;16.90;99.90;;;;;;4933934;29;20198;-73
2022/04/23 13:24:18;;;;;;;13.67;12.57;;;16.80;99.90;;;;;;4934192;29;20658;-73
2022/04/23 13:26:43;;;;;;;15.80;14.47;;;16.50;99.90;;;;;;4933594;29;20203;-73
2022/04/23 13:29:09;;;;;;;13.63;12.53;;;16.30;99.90;;;;;;4934021;29;20265;-73
2022/04/23 13:31:39;;;;;;;12.47;11.17;;;16.20;99.90;;;;;;4932953;29;20198;-72
2022/04/23 13:34:05;;;;;;;12.70;11.43;;;16.10;99.90;;;;;;4933715;29;20602;-73
2022/04/23 13:36:31;;;;;;;12.23;11.10;;;16.10;99.90;;;;;;4942636;29;20187;-73
2022/04/23 13:38:56;;;;;;;12.93;11.57;;;16.30;99.90;;;;;;4914752;29;20292;-73
2022/04/23 13:41:22;;;;;;;13.03;11.93;;;16.20;99.90;;;;;;4915060;29;20219;-72
2022/04/23 13:43:49;;;;;;;11.90;10.93;;;16.40;99.90;;;;;;4929929;29;20628;-73
2022/04/23 13:46:15;;;;;;;14.17;10.93;;;16.30;99.90;;;;;;4918776;29;20611;-73
2022/04/23 13:48:42;;;;;;;12.30;11.10;;;16.10;99.90;;;;;;4948342;29;20273;-73
2022/04/23 13:51:08;;;;;;;12.43;11.23;;;16.00;99.90;;;;;;4932648;29;20237;-73
2022/04/23 13:53:34;;;;;;;14.17;12.70;;;16.10;99.90;;;;;;4934164;29;20229;-73
2022/04/23 13:56:00;;;;;;;14.90;13.60;;;16.30;99.90;;;;;;4935124;29;20218;-73
2022/04/23 13:58:25;;;;;;;15.80;14.40;;;16.40;99.90;;;;;;4933430;29;20198;-73
2022/04/23 14:00:51;;;;;;;16.47;15.07;;;16.70;99.90;;;;;;4932848;29;20217;-72
2022/04/23 14:11:30;;;;;;;12.03;10.93;;;17.00;99.90;;;;;;4933756;29;20641;-73
2022/04/23 14:13:56;;;;;;;13.83;12.47;;;16.90;99.90;;;;;;4933556;29;20241;-73
2022/04/23 14:16:22;;;;;;;12.70;11.50;;;16.90;99.90;;;;;;4928643;29;20187;-73
2022/04/23 14:18:48;;;;;;;13.50;12.30;;;17.30;99.90;;;;;;4922105;29;20230;-73
2022/04/23 14:21:13;;;;;;;14.57;13.17;;;17.50;99.90;;;;;;4933660;29;20268;-72
2022/04/23 14:23:39;;;;;;;15.53;14.13;;;17.70;99.90;;;;;;4933405;29;20174;-73
2022/04/23 14:26:05;;;;;;;14.23;11.83;;;17.20;99.90;;;;;;4934856;29;20187;-73
2022/04/23 14:28:31;;;;;;;12.40;11.10;;;16.80;99.90;;;;;;4914256;29;20241;-73
2022/04/23 14:30:56;;;;;;;14.43;12.90;;;16.60;99.90;;;;;;4914566;29;20208;-73
2022/04/23 14:33:22;;;;;;;16.23;14.73;;;16.40;99.90;;;;;;4914654;29;20194;-73
2022/04/23 14:35:48;;;;;;;16.27;14.53;;;16.30;99.90;;;;;;4940080;29;20190;-72
2022/04/23 14:38:14;;;;;;;15.50;13.40;;;16.10;99.90;;;;;;4935600;29;20179;-72
2022/04/23 14:40:40;;;;;;;14.20;12.90;;;15.90;99.90;;;;;;4935425;29;20277;-72
2022/04/23 14:43:05;;;;;;;13.13;11.20;;;15.90;99.90;;;;;;4934253;29;20793;-72
2022/04/23 14:45:33;;;;;;;12.13;9.70;;;15.70;99.90;;;;;;4937592;29;20210;-73
2022/04/23 14:47:59;;;;;;;15.67;14.00;;;15.60;99.90;;;;;;4937303;29;20185;-73
2022/04/23 14:50:25;;;;;;;15.93;12.97;;;15.60;99.90;;;;;;4935463;29;20265;-74
2022/04/23 14:55:35;;;;;;;15.97;14.37;;;15.70;99.90;;;;;;4936554;29;20218;-74
2022/04/23 14:58:01;;;;;;;16.57;14.27;;;15.70;99.90;;;;;;4951168;29;20677;-74
2022/04/23 15:00:28;;;;;;;14.80;12.77;;;15.80;99.90;;;;;;4936573;29;20238;-75
2022/04/23 15:02:56;;;;;;;15.10;12.37;;;16.00;99.90;;;;;;4951293;29;20242;-74
2022/04/23 15:05:23;;;;;;;15.00;13.33;;;16.30;99.90;;;;;;4922887;29;20274;-75
2022/04/23 15:07:49;;;;;;;16.60;14.80;;;16.40;99.90;;;;;;4934624;29;20626;-74
2022/04/23 15:10:15;;;;;;;14.47;13.07;;;16.20;99.90;;;;;;4936429;29;20646;-73
2022/04/23 15:12:41;;;;;;;13.87;12.57;;;16.20;99.90;;;;;;4936550;29;20198;-75
2022/04/23 15:15:07;;;;;;;15.17;12.63;;;16.20;99.90;;;;;;4936405;29;20194;-74
2022/04/23 15:17:33;;;;;;;13.37;11.63;;;16.10;99.90;;;;;;4935687;29;20178;-72
2022/04/23 15:19:59;;;;;;;14.27;12.70;;;16.10;99.90;;;;;;4936327;29;20214;-71
2022/04/23 15:22:25;;;;;;;15.03;13.63;;;16.30;99.90;;;;;;4936288;29;20261;-71
2022/04/23 15:24:51;;;;;;;16.17;14.63;;;16.50;99.90;;;;;;4951095;29;20190;-71
2022/04/23 15:27:17;;;;;;;17.93;16.10;;;16.50;99.90;;;;;;4934895;29;20182;-71
2022/04/23 15:29:43;;;;;;;17.33;15.83;;;16.50;99.90;;;;;;4934815;29;20257;-72
2022/04/23 15:32:09;;;;;;;17.50;15.83;;;16.60;99.90;;;;;;4935972;29;20220;-71
2022/04/23 15:34:38;;;;;;;16.43;14.40;;;16.70;99.90;;;;;;4936711;29;20796;-71
2022/04/23 15:37:04;;;;;;;17.20;15.60;;;16.60;99.90;;;;;;4935653;29;20187;-71
2022/04/23 15:39:30;;;;;;;17.90;16.30;;;16.40;99.90;;;;;;4935488;29;20191;-72
2022/04/23 15:41:56;;;;;;;16.93;15.43;;;16.20;99.90;;;;;;4936372;29;20209;-71
2022/04/23 15:44:22;;;;;;;14.73;13.23;;;16.20;99.90;;;;;;4937426;29;20196;-72
2022/04/23 15:46:47;;;;;;;16.30;14.27;;;16.10;99.90;;;;;;4936105;29;20206;-71
2022/04/23 15:49:13;;;;;;;16.80;15.13;;;16.10;99.90;;;;;;4936898;29;20565;-72
2022/04/23 15:51:39;;;;;;;15.87;14.43;;;16.20;99.90;;;;;;4935655;29;20702;-72
2022/04/23 15:54:04;;;;;;;17.73;15.57;;;16.20;99.90;;;;;;4935662;29;20226;-72
2022/04/23 15:56:30;;;;;;;17.00;15.50;;;16.30;99.90;;;;;;4935442;29;20218;-72
2022/04/23 15:58:56;;;;;;;16.83;15.13;;;16.30;99.90;;;;;;4934963;29;20241;-71
2022/04/23 16:01:22;;;;;;;14.53;13.33;;;16.20;99.90;;;;;;4934199;29;20804;-70
2022/04/23 16:03:48;;;;;;;14.27;12.87;;;16.20;99.90;;;;;;4934287;29;20281;-71
2022/04/23 16:06:14;;;;;;;13.33;11.93;;;16.10;99.90;;;;;;4935599;29;20182;-71
2022/04/23 16:08:40;;;;;;;12.67;11.47;;;16.20;99.90;;;;;;4922352;29;20283;-71
2022/04/23 16:11:05;;;;;;;12.13;10.93;;;16.10;99.90;;;;;;4916506;29;20202;-71
2022/04/23 16:13:32;;;;;;;12.93;11.73;;;16.20;99.90;;;;;;4916312;29;20222;-72
2022/04/23 16:15:58;;;;;;;14.77;13.37;;;16.50;99.90;;;;;;4916192;29;20190;-71
2022/04/23 16:18:24;;;;;;;13.90;12.70;;;17.00;99.90;;;;;;4939495;29;20186;-72
2022/04/23 16:20:49;;;;;;;12.57;10.20;;;17.70;99.90;;;;;;4934819;29;20717;-71
2022/04/23 16:23:15;;;;;;;14.83;12.77;;;18.20;99.90;;;;;;4935103;29;20229;-71
2022/04/23 16:25:41;;;;;;;13.77;12.67;;;18.80;99.90;;;;;;4935108;29;20186;-70
2022/04/23 16:28:07;;;;;;;13.57;12.37;;;19.30;99.90;;;;;;4932734;29;20659;-72
2022/04/23 16:30:36;;;;;;;14.00;12.70;;;19.40;99.90;;;;;;4933711;29;20207;-72
2022/04/23 16:33:02;;;;;;;13.43;12.13;;;19.20;99.90;;;;;;4934804;29;20186;-71